sensor_id;sensor_type;location;lat;lon;timestamp;pressure;altitude;pressure_sealevel;temperature;humidity
75794;BME280;64418;47.536;19.074;2023-04-24T00:00:20;99546.38;;;13.11;57.04
75794;BME280;64418;47.536;19.074;2023-04-24T00:03:06;99542.03;;;13.10;57.14
75794;BME280;64418;47.536;19.074;2023-04-24T00:05:50;99542.69;;;13.17;56.78
75794;BME280;64418;47.536;19.074;2023-04-24T00:08:35;99540.06;;;13.22;56.50
75794;BME280;64418;47.536;19.074;2023-04-24T00:11:19;99540.06;;;13.22;56.65
75794;BME280;64418;47.536;19.074;2023-04-24T00:14:04;99527.63;;;13.26;56.35
75794;BME280;64418;47.536;19.074;2023-04-24T00:16:48;99525.56;;;13.33;56.26
75794;BME280;64418;47.536;19.074;2023-04-24T00:19:34;99535.16;;;13.36;56.72
75794;BME280;64418;47.536;19.074;2023-04-24T00:22:18;99533.25;;;13.36;56.37
75794;BME280;64418;47.536;19.074;2023-04-24T00:25:02;99535.00;;;13.42;56.44
75794;BME280;64418;47.536;19.074;2023-04-24T00:27:47;99539.44;;;13.48;56.25
75794;BME280;64418;47.536;19.074;2023-04-24T00:30:31;99543.09;;;13.54;55.90
75794;BME280;64418;47.536;19.074;2023-04-24T00:33:16;99548.84;;;13.58;55.82
75794;BME280;64418;47.536;19.074;2023-04-24T00:36:01;99539.13;;;13.62;55.58
75794;BME280;64418;47.536;19.074;2023-04-24T00:38:46;99537.56;;;13.66;55.48
75794;BME280;64418;47.536;19.074;2023-04-24T00:41:30;99536.31;;;13.73;55.24
75794;BME280;64418;47.536;19.074;2023-04-24T00:44:14;99522.22;;;13.76;55.39
75794;BME280;64418;47.536;19.074;2023-04-24T00:46:59;99514.38;;;13.80;55.32
75794;BME280;64418;47.536;19.074;2023-04-24T00:49:43;99522.81;;;13.78;55.35
75794;BME280;64418;47.536;19.074;2023-04-24T00:52:29;99517.59;;;13.77;55.49
75794;BME280;64418;47.536;19.074;2023-04-24T00:55:14;99517.59;;;13.77;54.63
75794;BME280;64418;47.536;19.074;2023-04-24T00:57:58;99517.94;;;13.80;53.97
75794;BME280;64418;47.536;19.074;2023-04-24T01:00:43;99519.31;;;13.83;53.51
75794;BME280;64418;47.536;19.074;2023-04-24T01:03:30;99517.19;;;13.85;53.30
75794;BME280;64418;47.536;19.074;2023-04-24T01:06:15;99502.84;;;13.89;52.81
75794;BME280;64418;47.536;19.074;2023-04-24T01:09:01;99509.91;;;13.90;52.34
75794;BME280;64418;47.536;19.074;2023-04-24T01:11:46;99517.84;;;13.92;52.00
75794;BME280;64418;47.536;19.074;2023-04-24T01:14:31;99506.44;;;13.95;51.88
75794;BME280;64418;47.536;19.074;2023-04-24T01:17:15;99523.69;;;14.01;51.49
75794;BME280;64418;47.536;19.074;2023-04-24T01:20:00;99519.63;;;14.03;51.26
75794;BME280;64418;47.536;19.074;2023-04-24T01:22:46;99511.22;;;14.05;50.94
75794;BME280;64418;47.536;19.074;2023-04-24T01:25:30;99517.56;;;14.10;50.64
75794;BME280;64418;47.536;19.074;2023-04-24T01:28:15;99511.03;;;14.11;50.58
75794;BME280;64418;47.536;19.074;2023-04-24T01:31:00;99504.19;;;14.09;50.46
75794;BME280;64418;47.536;19.074;2023-04-24T01:33:45;99504.44;;;14.07;50.44
75794;BME280;64418;47.536;19.074;2023-04-24T01:36:30;99504.97;;;14.04;50.52
75794;BME280;64418;47.536;19.074;2023-04-24T01:39:17;99508.25;;;14.06;50.44
75794;BME280;64418;47.536;19.074;2023-04-24T01:42:01;99495.88;;;13.98;50.65
75794;BME280;64418;47.536;19.074;2023-04-24T01:44:46;99491.25;;;13.99;50.62
75794;BME280;64418;47.536;19.074;2023-04-24T01:47:31;99496.28;;;14.07;50.37
75794;BME280;64418;47.536;19.074;2023-04-24T01:50:15;99495.12;;;14.03;50.47
75794;BME280;64418;47.536;19.074;2023-04-24T01:53:00;99487.47;;;14.00;50.57
75794;BME280;64418;47.536;19.074;2023-04-24T01:55:46;99486.97;;;14.03;50.66
75794;BME280;64418;47.536;19.074;2023-04-24T01:58:31;99472.78;;;14.01;51.48
75794;BME280;64418;47.536;19.074;2023-04-24T02:01:18;99462.16;;;13.83;54.00
75794;BME280;64418;47.536;19.074;2023-04-24T02:04:04;99460.19;;;13.62;56.77
75794;BME280;64418;47.536;19.074;2023-04-24T02:06:48;99450.63;;;13.42;58.01
75794;BME280;64418;47.536;19.074;2023-04-24T02:09:32;99462.44;;;13.31;58.36
75794;BME280;64418;47.536;19.074;2023-04-24T02:12:19;99457.38;;;13.23;59.41
75794;BME280;64418;47.536;19.074;2023-04-24T02:15:04;99447.25;;;13.19;59.22
75794;BME280;64418;47.536;19.074;2023-04-24T02:17:49;99437.69;;;13.16;60.21
75794;BME280;64418;47.536;19.074;2023-04-24T02:20:33;99442.63;;;13.19;61.43
75794;BME280;64418;47.536;19.074;2023-04-24T02:23:18;99447.50;;;13.17;62.04
75794;BME280;64418;47.536;19.074;2023-04-24T02:26:02;99435.31;;;13.20;62.50
75794;BME280;64418;47.536;19.074;2023-04-24T02:28:48;99433.91;;;13.17;64.14
75794;BME280;64418;47.536;19.074;2023-04-24T02:31:32;99432.25;;;13.16;63.08
75794;BME280;64418;47.536;19.074;2023-04-24T02:34:17;99436.69;;;13.22;64.10
75794;BME280;64418;47.536;19.074;2023-04-24T02:37:01;99426.31;;;13.19;66.47
75794;BME280;64418;47.536;19.074;2023-04-24T02:39:46;99427.53;;;13.12;68.21
75794;BME280;64418;47.536;19.074;2023-04-24T02:42:31;99427.88;;;13.15;67.45
75794;BME280;64418;47.536;19.074;2023-04-24T02:45:17;99428.69;;;13.16;67.77
75794;BME280;64418;47.536;19.074;2023-04-24T02:48:01;99429.91;;;13.08;69.20
75794;BME280;64418;47.536;19.074;2023-04-24T02:50:46;99430.03;;;13.13;68.79
75794;BME280;64418;47.536;19.074;2023-04-24T02:53:30;99424.31;;;13.15;69.11
75794;BME280;64418;47.536;19.074;2023-04-24T02:56:15;99420.22;;;13.12;67.68
75794;BME280;64418;47.536;19.074;2023-04-24T02:58:59;99427.88;;;13.15;66.70
75794;BME280;64418;47.536;19.074;2023-04-24T03:01:44;99425.75;;;13.17;67.75
75794;BME280;64418;47.536;19.074;2023-04-24T03:04:29;99423.84;;;13.18;68.20
75794;BME280;64418;47.536;19.074;2023-04-24T03:07:14;99424.66;;;13.18;69.03
75794;BME280;64418;47.536;19.074;2023-04-24T03:09:58;99426.72;;;13.11;69.40
75794;BME280;64418;47.536;19.074;2023-04-24T03:12:42;99415.25;;;13.09;69.57
75794;BME280;64418;47.536;19.074;2023-04-24T03:15:27;99406.63;;;13.12;70.48
75794;BME280;64418;47.536;19.074;2023-04-24T03:18:12;99409.81;;;13.09;70.19
75794;BME280;64418;47.536;19.074;2023-04-24T03:20:57;99408.66;;;13.05;70.86
75794;BME280;64418;47.536;19.074;2023-04-24T03:23:41;99406.16;;;13.03;71.00
75794;BME280;64418;47.536;19.074;2023-04-24T03:26:26;99414.09;;;13.05;71.95
75794;BME280;64418;47.536;19.074;2023-04-24T03:29:10;99408.88;;;13.03;72.24
75794;BME280;64418;47.536;19.074;2023-04-24T03:31:54;99409.28;;;12.95;72.42
75794;BME280;64418;47.536;19.074;2023-04-24T03:34:40;99418.75;;;12.93;72.64
75794;BME280;64418;47.536;19.074;2023-04-24T03:37:24;99415.22;;;12.92;72.81
75794;BME280;64418;47.536;19.074;2023-04-24T03:40:09;99414.37;;;12.92;72.85
75794;BME280;64418;47.536;19.074;2023-04-24T03:42:53;99417.38;;;12.90;72.59
75794;BME280;64418;47.536;19.074;2023-04-24T03:45:37;99420.56;;;12.87;73.18
75794;BME280;64418;47.536;19.074;2023-04-24T03:48:21;99407.78;;;12.88;72.96
75794;BME280;64418;47.536;19.074;2023-04-24T03:51:07;99398.72;;;12.82;72.81
75794;BME280;64418;47.536;19.074;2023-04-24T03:53:52;99408.34;;;12.73;73.02
75794;BME280;64418;47.536;19.074;2023-04-24T03:56:36;99396.31;;;12.69;71.94
75794;BME280;64418;47.536;19.074;2023-04-24T03:59:20;99402.69;;;12.75;71.51
75794;BME280;64418;47.536;19.074;2023-04-24T04:02:05;99411.00;;;12.68;71.04
75794;BME280;64418;47.536;19.074;2023-04-24T04:04:49;99419.88;;;12.64;70.90
75794;BME280;64418;47.536;19.074;2023-04-24T04:07:35;99412.66;;;12.57;71.56
75794;BME280;64418;47.536;19.074;2023-04-24T04:10:19;99409.38;;;12.55;71.25
75794;BME280;64418;47.536;19.074;2023-04-24T04:13:04;99410.53;;;12.60;71.32
75794;BME280;64418;47.536;19.074;2023-04-24T04:15:48;99403.91;;;12.67;70.64
75794;BME280;64418;47.536;19.074;2023-04-24T04:18:33;99405.87;;;12.72;70.74
75794;BME280;64418;47.536;19.074;2023-04-24T04:21:18;99406.78;;;12.77;70.69
75794;BME280;64418;47.536;19.074;2023-04-24T04:24:04;99407.94;;;12.81;70.49
75794;BME280;64418;47.536;19.074;2023-04-24T04:26:49;99417.94;;;12.92;70.55
75794;BME280;64418;47.536;19.074;2023-04-24T04:29:34;99413.91;;;12.95;70.47
75794;BME280;64418;47.536;19.074;2023-04-24T04:32:18;99415.53;;;12.96;71.22
75794;BME280;64418;47.536;19.074;2023-04-24T04:35:03;99413.75;;;13.01;70.13
75794;BME280;64418;47.536;19.074;2023-04-24T04:37:48;99414.22;;;13.10;69.09
75794;BME280;64418;47.536;19.074;2023-04-24T04:40:33;99402.25;;;13.11;69.10
75794;BME280;64418;47.536;19.074;2023-04-24T04:43:17;99400.78;;;13.20;68.98
75794;BME280;64418;47.536;19.074;2023-04-24T04:46:02;99409.03;;;13.25;68.58
75794;BME280;64418;47.536;19.074;2023-04-24T04:48:46;99407.88;;;13.21;68.40
75794;BME280;64418;47.536;19.074;2023-04-24T04:51:31;99402.25;;;13.11;68.64
75794;BME280;64418;47.536;19.074;2023-04-24T04:54:15;99401.59;;;13.21;68.22
75794;BME280;64418;47.536;19.074;2023-04-24T04:57:02;99410.09;;;13.24;67.88
75794;BME280;64418;47.536;19.074;2023-04-24T04:59:46;99401.44;;;13.27;67.98
75794;BME280;64418;47.536;19.074;2023-04-24T05:02:31;99398.19;;;13.30;68.16
75794;BME280;64418;47.536;19.074;2023-04-24T05:05:15;99393.50;;;13.26;68.01
75794;BME280;64418;47.536;19.074;2023-04-24T05:08:00;99392.63;;;13.20;68.36
75794;BME280;64418;47.536;19.074;2023-04-24T05:10:44;99397.06;;;13.26;68.40
75794;BME280;64418;47.536;19.074;2023-04-24T05:13:30;99400.59;;;13.43;68.15
75794;BME280;64418;47.536;19.074;2023-04-24T05:16:15;99388.59;;;13.61;67.97
75794;BME280;64418;47.536;19.074;2023-04-24T05:18:59;99388.06;;;13.59;69.56
75794;BME280;64418;47.536;19.074;2023-04-24T05:21:44;99389.44;;;13.62;69.27
75794;BME280;64418;47.536;19.074;2023-04-24T05:24:28;99386.50;;;13.46;71.19
75794;BME280;64418;47.536;19.074;2023-04-24T05:27:13;99394.47;;;13.70;70.07
75794;BME280;64418;47.536;19.074;2023-04-24T05:29:58;99395.88;;;13.94;68.69
75794;BME280;64418;47.536;19.074;2023-04-24T05:32:43;99395.38;;;13.97;68.53
75794;BME280;64418;47.536;19.074;2023-04-24T05:35:27;99397.91;;;14.25;67.25
75794;BME280;64418;47.536;19.074;2023-04-24T05:38:11;99380.94;;;14.18;66.56
75794;BME280;64418;47.536;19.074;2023-04-24T05:40:55;99391.28;;;14.38;66.15
75794;BME280;64418;47.536;19.074;2023-04-24T05:43:40;99391.53;;;14.36;65.27
75794;BME280;64418;47.536;19.074;2023-04-24T05:46:26;99407.03;;;14.14;65.56
75794;BME280;64418;47.536;19.074;2023-04-24T05:49:10;99403.34;;;14.04;65.59
75794;BME280;64418;47.536;19.074;2023-04-24T05:51:55;99404.53;;;13.91;65.90
75794;BME280;64418;47.536;19.074;2023-04-24T05:54:42;99395.41;;;13.80;65.80
75794;BME280;64418;47.536;19.074;2023-04-24T05:57:27;99400.63;;;14.04;65.09
75794;BME280;64418;47.536;19.074;2023-04-24T06:00:12;99401.06;;;14.17;64.12
75794;BME280;64418;47.536;19.074;2023-04-24T06:02:59;99402.41;;;14.15;63.82
75794;BME280;64418;47.536;19.074;2023-04-24T06:05:43;99393.03;;;14.27;63.56
75794;BME280;64418;47.536;19.074;2023-04-24T06:08:27;99393.69;;;14.34;63.30
75794;BME280;64418;47.536;19.074;2023-04-24T06:11:11;99405.25;;;14.46;62.95
75794;BME280;64418;47.536;19.074;2023-04-24T06:13:59;99405.41;;;14.62;62.59
75794;BME280;64418;47.536;19.074;2023-04-24T06:16:43;99402.00;;;14.71;62.12
75794;BME280;64418;47.536;19.074;2023-04-24T06:19:29;99408.97;;;14.89;61.49
75794;BME280;64418;47.536;19.074;2023-04-24T06:22:13;99413.91;;;14.92;61.38
75794;BME280;64418;47.536;19.074;2023-04-24T06:24:58;99415.66;;;15.03;60.99
75794;BME280;64418;47.536;19.074;2023-04-24T06:27:43;99410.53;;;15.07;60.99
75794;BME280;64418;47.536;19.074;2023-04-24T06:30:27;99409.31;;;15.24;60.49
75794;BME280;64418;47.536;19.074;2023-04-24T06:33:11;99405.09;;;15.12;61.10
75794;BME280;64418;47.536;19.074;2023-04-24T06:35:57;99408.06;;;15.05;61.47
75794;BME280;64418;47.536;19.074;2023-04-24T06:38:41;99418.34;;;14.98;61.93
75794;BME280;64418;47.536;19.074;2023-04-24T06:41:26;99411.16;;;14.87;62.76
75794;BME280;64418;47.536;19.074;2023-04-24T06:44:10;99404.63;;;14.39;64.54
75794;BME280;64418;47.536;19.074;2023-04-24T06:46:54;99397.25;;;14.35;65.33
75794;BME280;64418;47.536;19.074;2023-04-24T06:49:39;99403.19;;;14.54;64.58
75794;BME280;64418;47.536;19.074;2023-04-24T06:52:24;99392.97;;;14.44;65.08
75794;BME280;64418;47.536;19.074;2023-04-24T06:55:09;99403.03;;;14.65;64.70
75794;BME280;64418;47.536;19.074;2023-04-24T06:57:53;99397.88;;;14.69;64.42
75794;BME280;64418;47.536;19.074;2023-04-24T07:00:37;99406.72;;;14.81;63.93
75794;BME280;64418;47.536;19.074;2023-04-24T07:03:22;99408.50;;;14.65;63.87
75794;BME280;64418;47.536;19.074;2023-04-24T07:06:07;99409.91;;;14.46;64.59
75794;BME280;64418;47.536;19.074;2023-04-24T07:08:52;99413.19;;;14.48;64.59
75794;BME280;64418;47.536;19.074;2023-04-24T07:11:37;99379.88;;;14.41;64.54
75794;BME280;64418;47.536;19.074;2023-04-24T07:14:22;99409.25;;;14.39;65.37
75794;BME280;64418;47.536;19.074;2023-04-24T07:17:07;99407.13;;;14.41;65.16
75794;BME280;64418;47.536;19.074;2023-04-24T07:19:51;99404.56;;;14.56;64.72
75794;BME280;64418;47.536;19.074;2023-04-24T07:22:35;99409.28;;;14.66;64.42
75794;BME280;64418;47.536;19.074;2023-04-24T07:25:21;99404.94;;;14.65;64.53
75794;BME280;64418;47.536;19.074;2023-04-24T07:28:05;99396.53;;;14.71;64.33
75794;BME280;64418;47.536;19.074;2023-04-24T07:30:50;99395.78;;;14.76;64.25
75794;BME280;64418;47.536;19.074;2023-04-24T07:33:34;99404.59;;;14.88;63.88
75794;BME280;64418;47.536;19.074;2023-04-24T07:36:19;99413.91;;;14.92;63.85
75794;BME280;64418;47.536;19.074;2023-04-24T07:39:03;99405.25;;;15.00;63.75
75794;BME280;64418;47.536;19.074;2023-04-24T07:41:49;99408.38;;;14.82;64.29
75794;BME280;64418;47.536;19.074;2023-04-24T07:44:34;99404.63;;;15.20;63.52
75794;BME280;64418;47.536;19.074;2023-04-24T07:47:18;99394.06;;;15.33;62.68
75794;BME280;64418;47.536;19.074;2023-04-24T07:50:03;99386.91;;;15.22;63.08
75794;BME280;64418;47.536;19.074;2023-04-24T07:52:48;99394.47;;;15.10;63.72
75794;BME280;64418;47.536;19.074;2023-04-24T07:55:32;99403.44;;;15.11;64.10
75794;BME280;64418;47.536;19.074;2023-04-24T07:58:18;99387.06;;;15.42;63.07
75794;BME280;64418;47.536;19.074;2023-04-24T08:01:02;99406.94;;;15.75;62.47
75794;BME280;64418;47.536;19.074;2023-04-24T08:03:47;99392.19;;;16.23;60.59
75794;BME280;64418;47.536;19.074;2023-04-24T08:06:32;99401.53;;;16.37;60.23
75794;BME280;64418;47.536;19.074;2023-04-24T08:09:16;99407.84;;;16.48;59.93
75794;BME280;64418;47.536;19.074;2023-04-24T08:12:01;99405.28;;;16.21;60.82
75794;BME280;64418;47.536;19.074;2023-04-24T08:14:46;99404.28;;;16.42;60.76
75794;BME280;64418;47.536;19.074;2023-04-24T08:17:34;99400.31;;;16.85;59.67
75794;BME280;64418;47.536;19.074;2023-04-24T08:20:18;99402.56;;;17.13;59.12
75794;BME280;64418;47.536;19.074;2023-04-24T08:23:03;99398.69;;;17.85;57.33
75794;BME280;64418;47.536;19.074;2023-04-24T08:25:48;99403.03;;;18.01;56.72
75794;BME280;64418;47.536;19.074;2023-04-24T08:28:33;99390.87;;;18.22;56.28
75794;BME280;64418;47.536;19.074;2023-04-24T08:31:19;99400.63;;;17.69;57.37
75794;BME280;64418;47.536;19.074;2023-04-24T08:34:03;99403.91;;;17.66;57.72
75794;BME280;64418;47.536;19.074;2023-04-24T08:36:48;99399.81;;;17.44;58.49
75794;BME280;64418;47.536;19.074;2023-04-24T08:39:32;99403.91;;;17.31;58.96
75794;BME280;64418;47.536;19.074;2023-04-24T08:42:17;99405.28;;;16.98;59.99
75794;BME280;64418;47.536;19.074;2023-04-24T08:45:02;99412.94;;;17.06;59.75
75794;BME280;64418;47.536;19.074;2023-04-24T08:47:48;99400.91;;;17.43;58.57
75794;BME280;64418;47.536;19.074;2023-04-24T08:50:34;99399.28;;;17.37;58.10
75794;BME280;64418;47.536;19.074;2023-04-24T08:53:19;99398.13;;;17.83;56.82
75794;BME280;64418;47.536;19.074;2023-04-24T08:56:03;99370.19;;;17.81;55.81
75794;BME280;64418;47.536;19.074;2023-04-24T08:58:47;99393.66;;;18.07;55.37
75794;BME280;64418;47.536;19.074;2023-04-24T09:01:32;99400.94;;;18.42;54.26
75794;BME280;64418;47.536;19.074;2023-04-24T09:04:19;99386.69;;;18.89;52.88
75794;BME280;64418;47.536;19.074;2023-04-24T09:07:06;99386.84;;;18.69;53.01
75794;BME280;64418;47.536;19.074;2023-04-24T09:09:50;99384.13;;;18.59;53.14
75794;BME280;64418;47.536;19.074;2023-04-24T09:12:38;99384.44;;;18.57;53.61
75794;BME280;64418;47.536;19.074;2023-04-24T09:15:24;99384.28;;;19.16;51.84
75794;BME280;64418;47.536;19.074;2023-04-24T09:18:08;99389.19;;;19.24;51.34
75794;BME280;64418;47.536;19.074;2023-04-24T09:21:02;99388.09;;;19.20;51.43
75794;BME280;64418;47.536;19.074;2023-04-24T09:23:57;99379.16;;;19.39;51.17
75794;BME280;64418;47.536;19.074;2023-04-24T09:26:42;99376.69;;;19.71;49.96
75794;BME280;64418;47.536;19.074;2023-04-24T09:29:27;99375.63;;;19.91;47.45
75794;BME280;64418;47.536;19.074;2023-04-24T09:32:18;99375.87;;;20.42;46.83
75794;BME280;64418;47.536;19.074;2023-04-24T09:35:08;99367.09;;;19.68;47.76
75794;BME280;64418;47.536;19.074;2023-04-24T09:37:57;99354.00;;;20.08;46.16
75794;BME280;64418;47.536;19.074;2023-04-24T09:40:42;99355.84;;;19.65;47.01
75794;BME280;64418;47.536;19.074;2023-04-24T09:43:26;99353.66;;;19.67;47.09
75794;BME280;64418;47.536;19.074;2023-04-24T09:46:11;99351.03;;;20.04;45.98
75794;BME280;64418;47.536;19.074;2023-04-24T09:48:55;99354.16;;;20.59;45.13
75794;BME280;64418;47.536;19.074;2023-04-24T09:51:39;99354.47;;;20.76;45.17
75794;BME280;64418;47.536;19.074;2023-04-24T09:54:25;99341.53;;;21.60;43.52
75794;BME280;64418;47.536;19.074;2023-04-24T09:57:09;99361.94;;;21.59;42.57
75794;BME280;64418;47.536;19.074;2023-04-24T09:59:53;99353.03;;;20.97;44.84
75794;BME280;64418;47.536;19.074;2023-04-24T10:02:38;99343.69;;;21.31;42.60
75794;BME280;64418;47.536;19.074;2023-04-24T10:05:24;99351.94;;;20.42;44.73
75794;BME280;64418;47.536;19.074;2023-04-24T10:08:10;99348.66;;;20.59;45.22
75794;BME280;64418;47.536;19.074;2023-04-24T10:10:56;99352.00;;;19.66;45.94
75794;BME280;64418;47.536;19.074;2023-04-24T10:13:40;99346.94;;;20.20;45.15
75794;BME280;64418;47.536;19.074;2023-04-24T10:16:26;99342.41;;;20.35;44.34
75794;BME280;64418;47.536;19.074;2023-04-24T10:19:11;99343.09;;;19.98;45.40
75794;BME280;64418;47.536;19.074;2023-04-24T10:21:56;99346.94;;;20.20;45.10
75794;BME280;64418;47.536;19.074;2023-04-24T10:24:41;99346.03;;;20.06;45.73
75794;BME280;64418;47.536;19.074;2023-04-24T10:27:29;99351.78;;;19.86;45.75
75794;BME280;64418;47.536;19.074;2023-04-24T10:30:15;99345.87;;;19.11;48.06
75794;BME280;64418;47.536;19.074;2023-04-24T10:33:00;99345.37;;;19.38;47.06
75794;BME280;64418;47.536;19.074;2023-04-24T10:35:47;99329.94;;;19.18;47.65
75794;BME280;64418;47.536;19.074;2023-04-24T10:38:34;99329.91;;;19.52;47.19
75794;BME280;64418;47.536;19.074;2023-04-24T10:41:19;99330.87;;;20.51;44.73
75794;BME280;64418;47.536;19.074;2023-04-24T10:44:06;99334.53;;;19.81;46.51
75794;BME280;64418;47.536;19.074;2023-04-24T10:46:53;99302.03;;;19.30;46.56
75794;BME280;64418;47.536;19.074;2023-04-24T10:49:38;99318.47;;;19.64;46.27
75794;BME280;64418;47.536;19.074;2023-04-24T10:52:19;99343.22;;;19.01;47.93
75794;BME280;64418;47.536;19.074;2023-04-24T10:55:06;99334.50;;;18.94;48.42
75794;BME280;64418;47.536;19.074;2023-04-24T10:57:32;99320.56;;;18.86;49.14
75794;BME280;64418;47.536;19.074;2023-04-24T11:00:14;99325.22;;;18.85;49.57
75794;BME280;64418;47.536;19.074;2023-04-24T11:02:41;99323.69;;;19.37;48.42
75794;BME280;64418;47.536;19.074;2023-04-24T11:05:08;99324.53;;;19.66;47.51
75794;BME280;64418;47.536;19.074;2023-04-24T11:08:09;99319.69;;;19.24;48.60
75794;BME280;64418;47.536;19.074;2023-04-24T11:10:38;99330.56;;;19.05;49.59
75794;BME280;64418;47.536;19.074;2023-04-24T11:13:04;99325.72;;;18.92;50.68
75794;BME280;64418;47.536;19.074;2023-04-24T11:15:31;99328.03;;;19.14;50.23
75794;BME280;64418;47.536;19.074;2023-04-24T11:17:57;99311.72;;;19.22;50.38
75794;BME280;64418;47.536;19.074;2023-04-24T11:20:23;99313.94;;;19.26;50.37
75794;BME280;64418;47.536;19.074;2023-04-24T11:22:53;99319.19;;;19.22;50.27
75794;BME280;64418;47.536;19.074;2023-04-24T11:25:19;99319.22;;;19.46;49.36
75794;BME280;64418;47.536;19.074;2023-04-24T11:27:45;99318.34;;;20.22;47.31
75794;BME280;64418;47.536;19.074;2023-04-24T11:30:11;99311.94;;;20.31;47.13
75794;BME280;64418;47.536;19.074;2023-04-24T11:32:39;99306.81;;;20.19;47.65
75794;BME280;64418;47.536;19.074;2023-04-24T11:35:08;99306.16;;;19.85;48.30
75794;BME280;64418;47.536;19.074;2023-04-24T11:37:37;99313.66;;;20.22;47.33
75794;BME280;64418;47.536;19.074;2023-04-24T11:40:05;99295.88;;;20.57;46.47
75794;BME280;64418;47.536;19.074;2023-04-24T11:42:33;99292.44;;;21.16;44.92
75794;BME280;64418;47.536;19.074;2023-04-24T11:45:00;99301.88;;;20.59;46.24
75794;BME280;64418;47.536;19.074;2023-04-24T11:47:29;99297.63;;;20.48;46.90
75794;BME280;64418;47.536;19.074;2023-04-24T11:49:57;99300.75;;;20.79;46.04
75794;BME280;64418;47.536;19.074;2023-04-24T11:52:23;99299.37;;;20.01;47.80
75794;BME280;64418;47.536;19.074;2023-04-24T11:54:49;99301.59;;;20.18;47.30
75794;BME280;64418;47.536;19.074;2023-04-24T11:57:15;99290.69;;;20.88;45.87
75794;BME280;64418;47.536;19.074;2023-04-24T11:59:47;99287.16;;;22.29;43.08
75794;BME280;64418;47.536;19.074;2023-04-24T12:02:22;99274.94;;;21.53;44.32
75794;BME280;64418;47.536;19.074;2023-04-24T12:04:48;99289.91;;;21.01;45.83
75794;BME280;64418;47.536;19.074;2023-04-24T12:07:17;99273.88;;;21.22;45.60
75794;BME280;64418;47.536;19.074;2023-04-24T12:09:44;99271.59;;;21.10;45.93
75794;BME280;64418;47.536;19.074;2023-04-24T12:12:11;99266.59;;;21.12;45.86
75794;BME280;64418;47.536;19.074;2023-04-24T12:14:43;99263.91;;;20.00;48.71
75794;BME280;64418;47.536;19.074;2023-04-24T12:17:09;99262.19;;;19.85;49.34
75794;BME280;64418;47.536;19.074;2023-04-24T12:19:35;99254.00;;;19.56;50.13
75794;BME280;64418;47.536;19.074;2023-04-24T12:22:01;99240.84;;;19.30;50.94
75794;BME280;64418;47.536;19.074;2023-04-24T12:24:29;99249.69;;;19.21;51.40
75794;BME280;64418;47.536;19.074;2023-04-24T12:26:55;99244.84;;;19.13;51.87
75794;BME280;64418;47.536;19.074;2023-04-24T12:29:21;99245.84;;;18.94;52.10
75794;BME280;64418;47.536;19.074;2023-04-24T12:31:47;99238.81;;;18.83;52.30
75794;BME280;64418;47.536;19.074;2023-04-24T12:34:18;99233.97;;;19.03;51.83
75794;BME280;64418;47.536;19.074;2023-04-24T12:36:44;99241.09;;;18.70;52.83
75794;BME280;64418;47.536;19.074;2023-04-24T12:39:15;99237.38;;;18.61;52.88
75794;BME280;64418;47.536;19.074;2023-04-24T12:41:50;99237.59;;;18.65;52.73
75794;BME280;64418;47.536;19.074;2023-04-24T12:44:28;99236.00;;;18.59;53.14
75794;BME280;64418;47.536;19.074;2023-04-24T12:46:54;99235.41;;;18.23;54.80
75794;BME280;64418;47.536;19.074;2023-04-24T12:49:21;99226.34;;;18.27;55.08
75794;BME280;64418;47.536;19.074;2023-04-24T12:51:46;99226.94;;;18.19;55.88
75794;BME280;64418;47.536;19.074;2023-04-24T12:54:18;99222.56;;;18.13;55.90
75794;BME280;64418;47.536;19.074;2023-04-24T12:56:44;99209.31;;;17.87;56.51
75794;BME280;64418;47.536;19.074;2023-04-24T12:59:12;99217.69;;;18.05;55.81
75794;BME280;64418;47.536;19.074;2023-04-24T13:01:38;99214.19;;;18.00;56.45
75794;BME280;64418;47.536;19.074;2023-04-24T13:04:04;99209.31;;;17.87;57.58
75794;BME280;64418;47.536;19.074;2023-04-24T13:06:30;99204.72;;;17.77;58.23
75794;BME280;64418;47.536;19.074;2023-04-24T13:08:56;99210.22;;;17.72;59.17
75794;BME280;64418;47.536;19.074;2023-04-24T13:11:22;99206.09;;;17.74;59.22
75794;BME280;64418;47.536;19.074;2023-04-24T13:13:48;99212.38;;;17.75;59.61
75794;BME280;64418;47.536;19.074;2023-04-24T13:16:15;99201.41;;;17.80;59.52
75794;BME280;64418;47.536;19.074;2023-04-24T13:18:41;99206.34;;;17.78;59.46
75794;BME280;64418;47.536;19.074;2023-04-24T13:21:08;99204.72;;;17.72;59.38
75794;BME280;64418;47.536;19.074;2023-04-24T13:23:33;99202.00;;;17.72;59.21
75794;BME280;64418;47.536;19.074;2023-04-24T13:25:59;99184.19;;;17.74;59.67
75794;BME280;64418;47.536;19.074;2023-04-24T13:28:25;99193.56;;;17.63;60.53
75794;BME280;64418;47.536;19.074;2023-04-24T13:30:51;99184.00;;;17.51;61.32
75794;BME280;64418;47.536;19.074;2023-04-24T13:33:18;99181.25;;;17.56;61.51
75794;BME280;64418;47.536;19.074;2023-04-24T13:35:44;99175.28;;;17.39;62.49
75794;BME280;64418;47.536;19.074;2023-04-24T13:38:10;99176.97;;;17.24;63.45
75794;BME280;64418;47.536;19.074;2023-04-24T13:40:36;99177.03;;;17.09;64.13
75794;BME280;64418;47.536;19.074;2023-04-24T13:43:02;99183.06;;;17.06;63.96
75794;BME280;64418;47.536;19.074;2023-04-24T13:45:28;99186.94;;;16.90;64.68
75794;BME280;64418;47.536;19.074;2023-04-24T13:47:54;99199.50;;;16.81;65.21
75794;BME280;64418;47.536;19.074;2023-04-24T13:50:21;99204.22;;;16.65;66.69
75794;BME280;64418;47.536;19.074;2023-04-24T13:52:47;99211.56;;;16.50;67.26
75794;BME280;64418;47.536;19.074;2023-04-24T13:55:13;99198.13;;;16.18;70.82
75794;BME280;64418;47.536;19.074;2023-04-24T13:57:39;99204.50;;;14.94;83.07
75794;BME280;64418;47.536;19.074;2023-04-24T14:00:07;99224.97;;;14.01;90.57